Time;durP1;ratioP1;P1;durP2;ratioP2;P2;SDS_P1;SDS_P2;PMS_P1;PMS_P2;Temp;Humidity;BMP_temperature;BMP_pressure;BME280_temperature;BME280_humidity;BME280_pressure;Samples;Min_cycle;Max_cycle;Signal;HPM_P1;HPM_P2
2021/01/24 00:00:48;;;;;;;35.80;13.88;;;6.90;66.90;;;;;;5013475;28;20033;-72
2021/01/24 00:03:15;;;;;;;27.63;12.90;;;6.80;67.00;;;;;;5013383;28;20033;-72
2021/01/24 00:05:42;;;;;;;;;;;6.70;67.40;;;;;;5017681;28;20098;-72
2021/01/24 00:08:09;;;;;;;19.45;9.43;;;;;;;;;;5024089;28;19913;-72
2021/01/24 00:10:35;;;;;;;16.45;8.05;;;;;;;;;;5021147;28;20034;-73
2021/01/24 00:13:01;;;;;;;19.00;7.60;;;;;;;;;;5014117;28;20770;-71
2021/01/24 00:15:28;;;;;;;17.33;7.85;;;;;;;;;;5013247;28;20041;-72
2021/01/24 00:17:54;;;;;;;14.50;6.63;;;;;;;;;;5011370;28;20045;-72
2021/01/24 00:20:21;;;;;;;15.82;7.05;;;;;;;;;;5012407;28;20099;-73
2021/01/24 00:22:47;;;;;;;16.17;7.20;;;;;;;;;;5012781;28;20045;-72
2021/01/24 00:25:13;;;;;;;18.08;7.32;;;;;;;;;;5012681;28;20057;-71
2021/01/24 00:27:40;;;;;;;16.52;8.48;;;;;;;;;;5012868;28;20040;-71
2021/01/24 00:30:07;;;;;;;15.05;7.75;;;6.00;67.70;;;;;;5012728;28;20050;-74
2021/01/24 00:32:33;;;;;;;16.77;8.77;;;;;;;;;;5012793;28;20037;-73
2021/01/24 00:35:00;;;;;;;21.25;10.13;;;;;;;;;;5010979;28;20034;-71
2021/01/24 00:37:26;;;;;;;16.80;9.60;;;;;;;;;;5011931;28;20045;-70
2021/01/24 00:39:52;;;;;;;21.00;10.18;;;;;;;;;;5012427;28;20036;-74
2021/01/24 00:42:18;;;;;;;24.88;10.32;;;;;;;;;;5012729;28;20022;-72
2021/01/24 00:44:45;;;;;;;28.60;12.15;;;;;;;;;;5012740;28;20076;-73
2021/01/24 00:47:11;;;;;;;29.17;12.02;;;;;;;;;;5012454;28;20036;-73
2021/01/24 00:49:37;;;;;;;24.55;12.18;;;;;;;;;;5011838;28;20386;-70
2021/01/24 00:52:04;;;;;;;26.90;12.25;;;;;;;;;;5012419;28;20041;-71
2021/01/24 00:54:31;;;;;;;30.52;13.48;;;;;;;;;;5011017;28;20025;-72
2021/01/24 00:56:57;;;;;;;28.38;13.45;;;;;;;;;;5012506;28;20394;-71
2021/01/24 00:59:23;;;;;;;28.77;12.65;;;;;;;;;;5012271;28;20061;-73
2021/01/24 01:01:49;;;;;;;37.33;14.43;;;;;;;;;;5012268;28;20034;-72
2021/01/24 01:04:16;;;;;;;29.45;12.52;;;;;;;;;;5011735;28;20021;-73
2021/01/24 01:06:42;;;;;;;28.40;12.35;;;;;;;;;;5012318;28;20037;-72
2021/01/24 01:09:08;;;;;;;33.47;13.68;;;;;;;;;;5011944;28;20030;-74
2021/01/24 01:11:34;;;;;;;26.40;12.90;;;;;;;;;;5012324;28;20034;-73
2021/01/24 01:14:01;;;;;;;30.58;12.57;;;;;;;;;;5012026;28;20029;-72
2021/01/24 01:16:27;;;;;;;24.65;12.48;;;;;;;;;;5012310;28;20505;-72
2021/01/24 01:18:53;;;;;;;29.73;13.38;;;;;;;;;;5011546;28;20430;-72
2021/01/24 01:21:20;;;;;;;26.42;11.85;;;;;;;;;;5011779;28;20425;-72
2021/01/24 01:23:46;;;;;;;28.98;12.80;;;;;;;;;;5011916;28;20045;-72
2021/01/24 01:26:15;;;;;;;31.25;13.02;;;7.70;64.50;;;;;;5011719;28;20192;-70
2021/01/24 01:28:42;;;;;;;33.90;14.07;;;;;;;;;;5011758;28;20463;-72
2021/01/24 01:31:08;;;;;;;34.83;13.35;;;;;;;;;;5010789;28;20088;-72
2021/01/24 01:33:35;;;;;;;31.20;12.85;;;;;;;;;;5011367;28;20030;-71
2021/01/24 01:36:01;;;;;;;35.25;12.73;;;;;;;;;;5015698;28;20041;-72
2021/01/24 01:38:27;;;;;;;31.33;13.63;;;;;;;;;;5018180;28;20044;-71
2021/01/24 01:40:54;;;;;;;32.20;12.65;;;;;;;;;;5018518;28;20049;-72
2021/01/24 01:43:20;;;;;;;29.30;13.52;;;;;;;;;;5010429;28;20394;-72
2021/01/24 01:45:47;;;;;;;35.00;13.48;;;;;;;;;;5018168;28;20425;-73
2021/01/24 01:48:13;;;;;;;29.75;11.93;;;;;;;;;;5017722;28;20033;-72
2021/01/24 01:50:40;;;;;;;31.88;12.48;;;;;;;;;;5018276;28;20041;-72
2021/01/24 01:53:06;;;;;;;31.38;12.88;;;;;;;;;;5018401;28;20034;-72
2021/01/24 01:55:32;;;;;;;30.40;12.85;;;;;;;;;;5018093;28;20022;-72
2021/01/24 01:57:58;;;;;;;28.48;10.98;;;;;;;;;;5018632;28;20037;-73
2021/01/24 02:00:25;;;;;;;26.48;11.45;;;;;;;;;;5018019;28;20034;-73
2021/01/24 02:03:11;;;;;;;28.75;11.52;;;7.10;64.90;;;;;;5018020;28;20489;-72
2021/01/24 02:05:40;;;;;;;27.25;11.52;;;7.00;65.00;;;;;;5017963;28;20037;-72
2021/01/24 02:08:10;;;;;;;21.35;9.25;;;7.10;65.00;;;;;;5018109;28;20038;-72
2021/01/24 02:11:04;;;;;;;30.08;12.52;;;7.30;64.30;;;;;;5017994;28;20048;-72
2021/01/24 02:13:48;;;;;;;29.15;11.90;;;7.50;63.60;;;;;;5018313;28;20021;-72
2021/01/24 02:16:16;;;;;;;29.05;10.90;;;7.70;63.10;;;;;;5016163;28;20057;-73
2021/01/24 02:18:45;;;;;;;25.80;11.55;;;7.80;62.90;;;;;;5018109;28;20037;-73
2021/01/24 02:21:12;;;;;;;25.33;11.43;;;;;;;;;;5017623;28;20057;-72
2021/01/24 02:23:40;;;;;;;26.35;11.35;;;7.80;62.80;;;;;;5018243;28;20026;-73
2021/01/24 02:26:54;;;;;;;28.73;11.27;;;7.90;62.90;;;;;;5017829;28;20345;-73
2021/01/24 02:29:38;;;;;;;24.63;10.95;;;8.00;62.30;;;;;;4967593;28;20046;-72
2021/01/24 02:32:05;;;;;;;33.80;13.43;;;;;;;;;;4976322;28;20042;-73
2021/01/24 02:34:35;;;;;;;23.45;12.02;;;8.00;62.60;;;;;;4976745;28;20487;-72
2021/01/24 02:37:03;;;;;;;32.15;13.38;;;8.00;62.70;;;;;;4976574;28;20042;-72
2021/01/24 02:39:31;;;;;;;33.65;14.10;;;8.00;62.90;;;;;;4976596;28;20055;-72
2021/01/24 02:41:57;;;;;;;40.05;14.90;;;;;;;;;;4961785;28;20047;-71
2021/01/24 02:44:24;;;;;;;32.90;15.02;;;8.10;62.90;;;;;;4968683;28;20155;-72
2021/01/24 02:46:51;;;;;;;35.75;14.68;;;;;;;;;;4973835;28;20133;-72
2021/01/24 02:49:18;;;;;;;32.42;14.38;;;;;;;;;;4973412;28;20487;-72
2021/01/24 02:51:45;;;;;;;40.83;15.80;;;8.30;62.20;;;;;;4973466;28;20035;-72
2021/01/24 02:54:12;;;;;;;36.45;14.82;;;8.20;62.30;;;;;;4973376;28;20062;-72
2021/01/24 02:56:38;;;;;;;;;;;8.20;62.80;;;;;;4973588;28;20065;-71
2021/01/24 02:59:04;;;;;;;35.00;13.30;;;;;;;;;;4972727;28;19996;-71
2021/01/24 03:01:31;;;;;;;30.45;13.98;;;;;;;;;;4973138;28;20399;-71
2021/01/24 03:03:57;;;;;;;32.17;14.30;;;;;;;;;;4999865;28;20049;-71
2021/01/24 03:06:23;;;;;;;31.95;13.60;;;;;;;;;;5014398;28;20034;-71
2021/01/24 03:08:50;;;;;;;29.85;13.45;;;;;;;;;;5014294;28;20034;-71
2021/01/24 03:11:19;;;;;;;26.65;13.05;;;8.30;62.10;;;;;;5014509;28;20041;-71
2021/01/24 03:14:07;;;;;;;37.22;13.82;;;8.50;62.10;;;;;;5013784;28;20056;-71
2021/01/24 03:16:34;;;;;;;35.22;13.88;;;;;;;;;;5014333;28;20044;-71
2021/01/24 03:19:00;;;;;;;29.25;13.77;;;;;;;;;;5014032;28;20014;-71
2021/01/24 03:21:27;;;;;;;31.92;13.55;;;8.50;61.60;;;;;;5013741;28;20058;-71
2021/01/24 03:23:53;;;;;;;;;;;8.40;62.00;;;;;;5014585;28;20025;-71
2021/01/24 03:26:21;;;;;;;30.17;12.63;;;8.50;61.30;;;;;;5014013;28;19913;-71
2021/01/24 03:28:47;;;;;;;27.88;13.77;;;;;;;;;;5013567;28;20493;-71
2021/01/24 03:31:13;;;;;;;28.83;12.95;;;;;;;;;;5014042;28;20073;-71
2021/01/24 03:33:40;;;;;;;28.48;13.13;;;;;;;;;;5013864;28;20405;-71
2021/01/24 03:36:06;;;;;;;30.77;13.40;;;;;;;;;;5013801;28;20060;-71
2021/01/24 03:38:33;;;;;;;24.85;13.23;;;;;;;;;;5014189;28;20030;-71
2021/01/24 03:40:59;;;;;;;24.00;12.32;;;;;;;;;;5013735;28;20037;-71
2021/01/24 03:43:25;;;;;;;29.35;14.02;;;;;;;;;;5013484;28;20109;-71
2021/01/24 03:45:52;;;;;;;30.52;13.68;;;;;;;;;;5013658;28;20491;-71
2021/01/24 03:48:18;;;;;;;30.38;13.98;;;;;;;;;;5013539;28;20061;-71
2021/01/24 03:50:44;;;;;;;32.30;12.60;;;;;;;;;;5013500;28;20037;-71
2021/01/24 03:53:10;;;;;;;26.55;12.73;;;;;;;;;;5013378;28;20101;-71
2021/01/24 03:55:37;;;;;;;31.00;12.55;;;;;;;;;;5013610;28;20041;-71
2021/01/24 03:58:03;;;;;;;25.55;12.23;;;;;;;;;;5012605;28;20036;-71
2021/01/24 04:00:29;;;;;;;31.00;13.10;;;;;;;;;;5013596;28;20430;-71
2021/01/24 04:02:56;;;;;;;23.98;13.07;;;;;;;;;;5013375;28;20025;-71
2021/01/24 04:05:22;;;;;;;32.08;11.75;;;;;;;;;;5013311;28;20494;-71
2021/01/24 04:07:48;;;;;;;27.65;12.30;;;;;;;;;;5013147;28;20036;-70
2021/01/24 04:10:15;;;;;;;28.67;11.18;;;;;;;;;;5013352;28;20490;-71
2021/01/24 04:12:41;;;;;;;24.80;12.05;;;;;;;;;;5012873;28;20030;-70
2021/01/24 04:15:08;;;;;;;28.30;11.57;;;;;;;;;;5012963;28;20030;-71
2021/01/24 04:17:34;;;;;;;29.08;12.25;;;;;;;;;;5013224;28;20030;-71
2021/01/24 04:20:00;;;;;;;22.70;10.15;;;;;;;;;;5012940;28;20490;-71
2021/01/24 04:22:28;;;;;;;30.35;10.82;;;;;;;;;;5012958;28;20149;-71
2021/01/24 04:24:54;;;;;;;27.15;11.27;;;;;;;;;;5012916;28;20083;-71
2021/01/24 04:27:20;;;;;;;26.73;11.30;;;;;;;;;;5012547;28;20397;-72
2021/01/24 04:29:47;;;;;;;28.80;11.15;;;;;;;;;;5013003;28;20291;-71
2021/01/24 04:32:13;;;;;;;23.58;9.35;;;;;;;;;;5012825;28;20516;-71
2021/01/24 04:34:39;;;;;;;24.35;10.68;;;;;;;;;;5012806;28;20022;-71
2021/01/24 04:37:05;;;;;;;30.25;11.63;;;;;;;;;;5012657;28;20478;-71
2021/01/24 04:39:32;;;;;;;26.98;11.00;;;;;;;;;;5012848;28;20045;-71
2021/01/24 04:41:58;;;;;;;26.92;10.60;;;;;;;;;;5011854;28;20076;-72
2021/01/24 04:44:25;;;;;;;26.08;10.63;;;;;;;;;;5011427;28;20092;-71
2021/01/24 04:46:51;;;;;;;29.92;11.05;;;;;;;;;;5012703;28;20030;-71
2021/01/24 04:49:18;;;;;;;24.20;10.93;;;;;;;;;;5012120;28;20041;-70
2021/01/24 04:51:44;;;;;;;35.03;11.20;;;;;;;;;;5012301;28;20520;-73
2021/01/24 04:54:11;;;;;;;29.58;11.05;;;8.00;62.90;;;;;;5012626;28;20033;-71
2021/01/24 04:56:38;;;;;;;25.15;10.93;;;;;;;;;;5011962;28;20505;-72
2021/01/24 04:59:04;;;;;;;;;;;7.90;63.00;;;;;;5012993;28;20498;-70
2021/01/24 05:01:32;;;;;;;24.38;10.45;;;8.00;63.00;;;;;;5012317;28;19913;-72
2021/01/24 05:03:59;;;;;;;23.45;10.50;;;8.00;63.00;;;;;;5012405;28;20083;-72
2021/01/24 05:06:27;;;;;;;27.50;10.48;;;7.90;63.40;;;;;;5011971;28;20101;-72
2021/01/24 05:08:53;;;;;;;30.38;12.15;;;;;;;;;;5012309;28;20087;-71
2021/01/24 05:11:20;;;;;;;23.25;10.23;;;7.60;64.40;;;;;;5010922;28;20037;-71
2021/01/24 05:13:46;;;;;;;24.10;9.95;;;;;;;;;;5012288;28;20478;-71
2021/01/24 05:16:13;;;;;;;29.52;11.40;;;;;;;;;;5012267;28;20403;-71
2021/01/24 05:18:40;;;;;;;29.92;11.73;;;7.70;64.40;;;;;;5011981;28;20025;-71
2021/01/24 05:21:09;;;;;;;22.70;10.65;;;7.80;64.40;;;;;;5012124;28;20050;-70
2021/01/24 05:23:37;;;;;;;24.65;10.55;;;7.90;64.20;;;;;;5012080;28;20030;-70
2021/01/24 05:26:07;;;;;;;28.60;11.32;;;8.00;63.90;;;;;;5011774;28;20041;-70
2021/01/24 05:28:34;;;;;;;23.45;10.25;;;;;;;;;;5011955;28;20442;-72
2021/01/24 05:31:04;;;;;;;20.75;9.35;;;7.80;63.90;;;;;;5012005;28;20494;-71
2021/01/24 05:33:30;;;;;;;23.88;9.63;;;;;;;;;;5011879;28;20062;-71
2021/01/24 05:35:57;;;;;;;14.18;7.15;;;;;;;;;;5011846;28;20032;-73
2021/01/24 05:38:28;;;;;;;13.85;6.63;;;6.80;66.40;;;;;;5011532;28;20045;-72
2021/01/24 05:40:55;;;;;;;12.45;6.10;;;6.60;66.80;;;;;;5011780;28;20034;-71
2021/01/24 05:43:24;;;;;;;13.02;6.43;;;6.60;67.20;;;;;;5011944;28;20479;-71
2021/01/24 05:45:51;;;;;;;11.80;6.10;;;;;;;;;;5011720;28;20029;-71
2021/01/24 05:48:17;;;;;;;12.65;6.20;;;;;;;;;;5010355;28;20037;-70
2021/01/24 05:50:45;;;;;;;17.55;7.47;;;7.00;65.80;;;;;;5011562;28;20042;-70
2021/01/24 05:53:12;;;;;;;12.15;6.47;;;;;;;;;;5011247;28;20026;-70
2021/01/24 05:55:38;;;;;;;13.85;7.18;;;;;;;;;;5011848;28;20037;-70
2021/01/24 05:58:19;;;;;;;11.02;5.63;;;7.30;64.80;;;;;;5011470;28;20054;-69
2021/01/24 06:00:47;;;;;;;10.48;6.28;;;7.30;64.70;;;;;;5034778;28;20043;-70
2021/01/24 06:03:14;;;;;;;9.98;5.43;;;7.30;64.60;;;;;;5004963;28;20029;-70
2021/01/24 06:05:40;;;;;;;9.48;5.65;;;;;;;;;;5005004;28;20398;-70
2021/01/24 06:08:07;;;;;;;8.80;5.18;;;7.40;64.30;;;;;;5003003;28;20038;-69
2021/01/24 06:10:34;;;;;;;8.63;4.82;;;;;;;;;;5011653;28;20045;-70
2021/01/24 06:13:01;;;;;;;8.77;4.63;;;;;;;;;;5009476;28;20035;-70
2021/01/24 06:15:31;;;;;;;7.10;4.80;;;7.50;64.40;;;;;;5009302;28;20397;-71
2021/01/24 06:17:58;;;;;;;7.20;4.70;;;7.60;63.60;;;;;;5006676;28;20029;-69
2021/01/24 06:20:38;;;;;;;7.63;4.65;;;7.40;63.50;;;;;;4997658;28;20150;-69
2021/01/24 06:23:10;;;;;;;5.63;4.35;;;7.20;63.60;;;;;;5009810;28;20054;-69
2021/01/24 06:25:41;;;;;;;6.22;4.28;;;7.30;63.80;;;;;;5001882;28;20439;-69
2021/01/24 06:28:29;;;;;;;6.78;4.22;;;7.30;63.80;;;;;;5010649;28;20045;-69
2021/01/24 06:30:56;;;;;;;7.60;4.18;;;;;;;;;;5004072;28;20033;-70
2021/01/24 06:33:23;;;;;;;7.00;4.47;;;7.40;63.60;;;;;;5010229;28;20038;-69
2021/01/24 06:36:02;;;;;;;5.57;4.20;;;7.30;63.40;;;;;;5012792;28;20025;-70
2021/01/24 06:38:52;;;;;;;7.30;4.05;;;7.40;63.20;;;;;;5009552;28;20049;-72
2021/01/24 06:41:42;;;;;;;7.13;4.15;;;7.40;62.70;;;;;;5003804;28;20522;-70
2021/01/24 06:44:43;;;;;;;6.47;4.10;;;7.30;63.10;;;;;;5012665;28;20026;-69
2021/01/24 06:47:39;;;;;;;5.00;4.00;;;7.30;63.10;;;;;;4952402;28;20719;-70
2021/01/24 06:50:35;;;;;;;5.68;3.90;;;7.30;62.80;;;;;;4973186;28;20034;-69
2021/01/24 06:53:06;;;;;;;8.65;4.05;;;7.20;62.70;;;;;;4972848;28;20034;-69
2021/01/24 06:55:32;;;;;;;8.10;4.28;;;;;;;;;;4953285;28;20043;-69
2021/01/24 06:58:25;;;;;;;7.25;4.07;;;7.30;62.90;;;;;;4970475;28;20038;-68
2021/01/24 07:00:52;;;;;;;5.93;4.38;;;7.30;62.60;;;;;;4978578;28;20042;-70
2021/01/24 07:03:22;;;;;;;6.47;4.30;;;7.20;62.80;;;;;;4973188;28;20131;-70
2021/01/24 07:05:48;;;;;;;5.03;3.83;;;;;;;;;;4974764;28;20062;-70
2021/01/24 07:08:31;;;;;;;5.28;4.10;;;7.10;63.00;;;;;;4972091;28;20047;-70
2021/01/24 07:10:58;;;;;;;8.48;4.80;;;;;;;;;;4975974;28;20066;-68
2021/01/24 07:13:24;;;;;;;5.68;4.30;;;;;;;;;;4974550;28;20119;-69
2021/01/24 07:15:58;;;;;;;10.75;4.93;;;7.00;63.80;;;;;;4972644;28;20061;-68
2021/01/24 07:18:25;;;;;;;7.70;4.22;;;;;;;;;;4972761;28;20074;-70
2021/01/24 07:20:53;;;;;;;6.10;4.65;;;7.10;63.40;;;;;;4983540;28;20051;-70
2021/01/24 07:23:19;;;;;;;7.57;4.72;;;;;;;;;;5002051;28;20046;-70
2021/01/24 07:25:47;;;;;;;5.10;4.18;;;;;;;;;;5007103;28;20046;-70
2021/01/24 07:28:15;;;;;;;9.48;4.80;;;7.10;63.40;;;;;;5001802;28;20486;-69
2021/01/24 07:30:41;;;;;;;10.25;4.30;;;;;;;;;;5007491;28;20474;-69
2021/01/24 07:33:08;;;;;;;5.82;4.18;;;;;;;;;;5001765;28;20034;-68
2021/01/24 07:35:35;;;;;;;6.47;4.32;;;7.10;63.10;;;;;;5008787;28;20025;-68
2021/01/24 07:38:01;;;;;;;8.18;4.57;;;;;;;;;;5010973;28;20030;-68
2021/01/24 07:40:28;;;;;;;8.43;4.93;;;;;;;;;;5012141;28;20045;-68
2021/01/24 07:42:54;;;;;;;8.85;4.93;;;;;;;;;;5004459;28;20028;-68
2021/01/24 07:45:22;;;;;;;10.30;5.15;;;;;;;;;;5008713;28;20707;-68
2021/01/24 07:47:48;;;;;;;17.17;5.85;;;;;;;;;;5003111;28;20037;-68
2021/01/24 07:50:15;;;;;;;11.60;5.75;;;;;;;;;;5005964;28;20470;-69
2021/01/24 07:52:42;;;;;;;8.65;5.38;;;7.10;63.20;;;;;;5013306;28;20561;-69
2021/01/24 07:55:10;;;;;;;11.00;6.35;;;7.10;62.70;;;;;;5013259;28;20398;-70
2021/01/24 07:57:38;;;;;;;9.43;5.90;;;7.10;63.00;;;;;;5012630;28;20434;-68
2021/01/24 08:00:05;;;;;;;10.00;5.80;;;;;;;;;;5013181;28;20018;-69
2021/01/24 08:02:39;;;;;;;10.68;6.25;;;7.20;63.00;;;;;;5012931;28;20038;-70
2021/01/24 08:05:07;;;;;;;11.60;6.43;;;7.10;63.30;;;;;;5012025;28;20120;-69
2021/01/24 08:07:33;;;;;;;10.25;5.97;;;;;;;;;;5012714;28;20040;-70
2021/01/24 08:09:59;;;;;;;12.77;6.25;;;;;;;;;;5012428;28;20026;-68
2021/01/24 08:12:26;;;;;;;9.30;6.13;;;;;;;;;;5012855;28;20478;-70
2021/01/24 08:14:53;;;;;;;8.07;5.72;;;7.10;63.10;;;;;;5012666;28;20046;-70
2021/01/24 08:17:21;;;;;;;9.98;6.22;;;7.20;62.90;;;;;;5004226;28;20080;-70
2021/01/24 08:19:48;;;;;;;10.80;6.60;;;7.10;63.10;;;;;;5006587;28;20081;-70
2021/01/24 08:22:14;;;;;;;13.70;6.68;;;;;;;;;;5012633;28;20037;-69
2021/01/24 08:24:41;;;;;;;10.68;6.80;;;;;;;;;;5012724;28;20037;-68
2021/01/24 08:27:08;;;;;;;;;;;7.10;62.90;;;;;;5012512;28;20457;-68
2021/01/24 08:29:35;;;;;;;11.27;7.03;;;;;;;;;;5012850;28;19964;-68
2021/01/24 08:32:05;;;;;;;11.18;7.03;;;7.00;62.80;;;;;;5012036;28;20037;-67
2021/01/24 08:34:32;;;;;;;12.77;7.38;;;7.00;62.80;;;;;;5011901;28;20466;-68
2021/01/24 08:37:00;;;;;;;15.07;7.45;;;6.90;63.00;;;;;;5012335;28;20036;-68
2021/01/24 08:39:27;;;;;;;11.95;7.57;;;7.00;63.00;;;;;;5012068;28;20030;-68
2021/01/24 08:41:54;;;;;;;11.38;7.57;;;;;;;;;;5012047;28;20033;-69
2021/01/24 08:44:20;;;;;;;12.80;7.50;;;;;;;;;;5011844;28;20397;-67
2021/01/24 08:46:51;;;;;;;13.48;7.57;;;7.00;62.80;;;;;;5011283;28;20059;-67
2021/01/24 08:49:26;;;;;;;14.38;7.05;;;7.10;62.60;;;;;;5011451;28;20038;-69
2021/01/24 08:51:56;;;;;;;14.95;7.97;;;7.20;62.20;;;;;;5012216;28;20068;-70
2021/01/24 08:54:25;;;;;;;14.80;8.30;;;7.20;62.00;;;;;;5012053;28;20033;-69
2021/01/24 08:57:04;;;;;;;12.52;7.95;;;7.20;62.10;;;;;;5011596;28;20394;-69
2021/01/24 08:59:31;;;;;;;14.80;7.90;;;;;;;;;;5011250;28;20102;-67
2021/01/24 09:01:57;;;;;;;11.82;7.47;;;;;;;;;;5011078;28;20124;-69
2021/01/24 09:04:28;;;;;;;11.30;7.10;;;7.20;62.20;;;;;;4318974;28;10000714;-65
2021/01/24 09:07:07;;;;;;;11.25;7.05;;;7.10;62.30;;;;;;5009007;28;20038;-67
2021/01/24 09:09:36;;;;;;;13.73;7.15;;;7.00;62.80;;;;;;5009791;28;20656;-67
2021/01/24 09:12:03;;;;;;;15.02;7.30;;;;;;;;;;5009373;28;20030;-68
2021/01/24 09:14:30;;;;;;;10.23;6.40;;;;;;;;;;5009608;28;20405;-66
2021/01/24 09:17:02;;;;;;;17.55;7.43;;;7.10;63.30;;;;;;5008694;28;20030;-65
2021/01/24 09:19:29;;;;;;;11.93;7.25;;;;;;;;;;5009519;28;20042;-66
2021/01/24 09:21:55;;;;;;;16.17;7.47;;;;;;;;;;5009366;28;20508;-66
2021/01/24 09:24:22;;;;;;;12.50;6.93;;;7.20;63.10;;;;;;5009397;28;20065;-67
2021/01/24 09:26:49;;;;;;;10.85;6.93;;;7.30;63.20;;;;;;5008803;28;20049;-67
2021/01/24 09:29:16;;;;;;;15.88;6.70;;;7.30;63.50;;;;;;5009299;28;20029;-69
2021/01/24 09:31:43;;;;;;;11.23;7.22;;;;;;;;;;5008722;28;20402;-68
2021/01/24 09:34:09;;;;;;;11.55;6.55;;;;;;;;;;5009635;28;20064;-66
2021/01/24 09:36:35;;;;;;;13.05;6.57;;;;;;;;;;5009417;28;20022;-67
2021/01/24 09:39:03;;;;;;;10.45;6.28;;;7.60;63.00;;;;;;5008857;28;20084;-67
2021/01/24 09:41:29;;;;;;;15.15;7.00;;;;;;;;;;5008608;28;20034;-67
2021/01/24 09:43:56;;;;;;;16.60;7.18;;;;;;;;;;5009269;28;20041;-67
2021/01/24 09:46:22;;;;;;;10.65;6.10;;;;;;;;;;5007254;28;20070;-67
2021/01/24 09:48:49;;;;;;;12.15;6.65;;;;;;;;;;5009054;28;20045;-67
2021/01/24 09:51:15;;;;;;;16.58;6.68;;;;;;;;;;5009403;28;20041;-67
2021/01/24 09:53:41;;;;;;;15.73;6.55;;;;;;;;;;5009142;28;20482;-66
2021/01/24 09:56:08;;;;;;;12.18;5.95;;;;;;;;;;5009305;28;20044;-69
2021/01/24 09:58:34;;;;;;;16.33;6.97;;;;;;;;;;5013185;28;20069;-68
2021/01/24 10:01:01;;;;;;;12.05;5.85;;;;;;;;;;5012467;28;20042;-68
2021/01/24 10:03:27;;;;;;;10.02;5.72;;;;;;;;;;5013356;28;20026;-66
2021/01/24 10:05:53;;;;;;;9.50;5.18;;;;;;;;;;5003808;28;20093;-65
2021/01/24 10:08:20;;;;;;;11.18;5.72;;;;;;;;;;5011282;28;20383;-65
2021/01/24 10:10:46;;;;;;;8.93;5.97;;;;;;;;;;5012595;28;20026;-66
2021/01/24 10:13:13;;;;;;;11.68;6.22;;;8.20;61.90;;;;;;5012628;28;20474;-67
2021/01/24 10:15:40;;;;;;;11.70;5.57;;;8.20;61.80;;;;;;5012472;28;20080;-66
2021/01/24 10:18:07;;;;;;;10.80;5.90;;;;;;;;;;5012250;28;20093;-67
2021/01/24 10:20:34;;;;;;;11.60;5.47;;;8.20;62.10;;;;;;5012906;28;20045;-67
2021/01/24 10:23:00;;;;;;;;;;;8.20;62.60;;;;;;5013276;28;20048;-65
2021/01/24 10:25:26;;;;;;;13.18;6.45;;;;;;;;;;5012458;28;19913;-66
2021/01/24 10:27:53;;;;;;;19.92;6.38;;;;;;;;;;5011487;28;20778;-67
2021/01/24 10:30:20;;;;;;;12.68;6.90;;;;;;;;;;5011927;28;20045;-67
2021/01/24 10:32:46;;;;;;;11.25;6.00;;;;;;;;;;5012367;28;20026;-66
2021/01/24 10:35:12;;;;;;;15.32;6.35;;;;;;;;;;5012287;28;20042;-67
2021/01/24 10:37:39;;;;;;;15.50;6.25;;;;;;;;;;5012374;28;20052;-67
2021/01/24 10:40:06;;;;;;;14.95;5.78;;;9.20;60.50;;;;;;5012054;28;20157;-66
2021/01/24 10:42:32;;;;;;;15.07;6.07;;;;;;;;;;4998365;28;20049;-67
2021/01/24 10:44:58;;;;;;;9.80;5.38;;;;;;;;;;5012452;28;20483;-69
2021/01/24 10:47:25;;;;;;;12.23;5.00;;;9.70;58.00;;;;;;5012136;28;20030;-67
2021/01/24 10:49:51;;;;;;;13.07;5.18;;;;;;;;;;5012062;28;20057;-69
2021/01/24 10:52:18;;;;;;;14.35;5.93;;;;;;;;;;5011861;28;20656;-66
2021/01/24 10:54:44;;;;;;;14.40;5.18;;;;;;;;;;5012123;28;20030;-65
2021/01/24 10:57:11;;;;;;;14.32;6.07;;;;;;;;;;5011374;28;20104;-65
2021/01/24 10:59:37;;;;;;;13.90;6.00;;;;;;;;;;5011676;28;20037;-67
2021/01/24 11:02:03;;;;;;;12.60;5.40;;;;;;;;;;5011927;28;20041;-67
2021/01/24 11:04:33;;;;;;;13.25;5.68;;;9.70;56.70;;;;;;5014667;28;20030;-65
2021/01/24 11:07:00;;;;;;;12.15;5.68;;;;;;;;;;5011943;28;20508;-67
2021/01/24 11:09:27;;;;;;;11.82;5.47;;;;;;;;;;5011157;28;20045;-67
2021/01/24 11:11:53;;;;;;;16.75;6.13;;;;;;;;;;5011241;28;20022;-68
2021/01/24 11:14:20;;;;;;;16.70;5.72;;;;;;;;;;5011937;28;20406;-68
2021/01/24 11:16:46;;;;;;;15.57;6.18;;;;;;;;;;5011088;28;20018;-65
2021/01/24 11:19:12;;;;;;;12.63;5.72;;;;;;;;;;5009350;28;20517;-67
2021/01/24 11:21:38;;;;;;;10.48;4.80;;;;;;;;;;5011281;28;20089;-68
2021/01/24 11:24:05;;;;;;;15.23;5.10;;;;;;;;;;5011773;28;20061;-67
2021/01/24 11:26:31;;;;;;;12.52;4.85;;;;;;;;;;5010418;28;20646;-64
2021/01/24 11:28:58;;;;;;;15.32;5.15;;;;;;;;;;4999855;28;20088;-66
2021/01/24 11:31:24;;;;;;;14.30;5.05;;;;;;;;;;4996796;28;20512;-65
2021/01/24 11:33:50;;;;;;;18.90;6.80;;;;;;;;;;5000969;28;20081;-66
2021/01/24 11:36:17;;;;;;;14.10;5.00;;;;;;;;;;4997057;28;20058;-66
2021/01/24 11:38:43;;;;;;;16.30;6.13;;;;;;;;;;4998640;28;20029;-67
2021/01/24 11:41:10;;;;;;;11.63;4.90;;;;;;;;;;4997370;28;20149;-67
2021/01/24 11:43:36;;;;;;;12.07;4.80;;;;;;;;;;4997616;28;20038;-67
2021/01/24 11:46:02;;;;;;;15.23;5.03;;;;;;;;;;5000609;28;20030;-67
2021/01/24 11:48:28;;;;;;;12.32;4.75;;;;;;;;;;4996069;28;20501;-66
2021/01/24 11:50:55;;;;;;;11.48;5.18;;;;;;;;;;5009749;28;20789;-64
2021/01/24 11:53:21;;;;;;;11.63;4.82;;;;;;;;;;5010739;28;20394;-66
2021/01/24 11:55:48;;;;;;;15.80;4.80;;;;;;;;;;5010124;28;20091;-65
2021/01/24 11:58:15;;;;;;;10.85;4.28;;;;;;;;;;5010492;28;20038;-65
2021/01/24 12:00:42;;;;;;;8.75;4.30;;;;;;;;;;5010700;28;20073;-67
2021/01/24 12:03:08;;;;;;;11.10;4.82;;;11.20;48.70;;;;;;5010722;28;20033;-68
2021/01/24 12:05:34;;;;;;;10.68;5.00;;;;;;;;;;5013571;28;20343;-67
2021/01/24 12:08:02;;;;;;;12.25;5.55;;;;;;;;;;5010333;28;20061;-67
2021/01/24 12:10:29;;;;;;;11.02;4.97;;;;;;;;;;5009679;28;20052;-66
2021/01/24 12:12:56;;;;;;;16.00;5.60;;;;;;;;;;5010150;28;20136;-64
2021/01/24 12:15:22;;;;;;;7.97;4.57;;;;;;;;;;5010419;28;20058;-67
2021/01/24 12:17:48;;;;;;;11.38;5.43;;;;;;;;;;5009816;28;21044;-65
2021/01/24 12:20:15;;;;;;;11.18;5.13;;;;;;;;;;5009841;28;20030;-67
2021/01/24 12:22:42;;;;;;;18.42;7.07;;;;;;;;;;5008240;28;20529;-66
2021/01/24 12:25:08;;;;;;;13.52;5.35;;;;;;;;;;5009885;28;20030;-65
2021/01/24 12:27:35;;;;;;;15.45;5.28;;;;;;;;;;5009176;28;20121;-67
2021/01/24 12:30:01;;;;;;;11.23;5.38;;;;;;;;;;5007882;28;20021;-65
2021/01/24 12:32:28;;;;;;;17.63;5.97;;;;;;;;;;5010756;28;20040;-66
2021/01/24 12:34:54;;;;;;;8.18;4.40;;;;;;;;;;5009651;28;20046;-66
2021/01/24 12:37:20;;;;;;;12.82;4.35;;;;;;;;;;5040780;28;20046;-66
2021/01/24 12:39:47;;;;;;;10.70;4.63;;;;;;;;;;5009931;28;20085;-66
2021/01/24 12:42:13;;;;;;;19.83;5.07;;;;;;;;;;5008143;28;20084;-66
2021/01/24 12:44:39;;;;;;;14.98;5.93;;;;;;;;;;5010623;28;20030;-66
2021/01/24 12:47:09;;;;;;;13.60;5.25;;;;;;;;;;5009024;28;20493;-66
2021/01/24 12:49:38;;;;;;;9.55;4.93;;;11.40;46.50;;;;;;5009757;28;20342;-67
2021/01/24 12:52:05;;;;;;;9.98;5.10;;;;;;;;;;5011840;28;20375;-66
2021/01/24 12:54:31;;;;;;;11.23;4.82;;;;;;;;;;5011168;28;20034;-66
2021/01/24 12:56:58;;;;;;;10.90;5.32;;;;;;;;;;5011895;28;20046;-67
2021/01/24 12:59:24;;;;;;;12.32;4.85;;;;;;;;;;5011754;28;20100;-65
2021/01/24 13:01:53;;;;;;;9.75;5.05;;;11.60;48.00;;;;;;5011900;28;20599;-67
2021/01/24 13:04:20;;;;;;;12.75;4.88;;;;;;;;;;5011572;28;20026;-67
2021/01/24 13:06:47;;;;;;;15.15;5.28;;;;;;;;;;5011412;28;20056;-66
2021/01/24 13:09:13;;;;;;;11.35;5.13;;;;;;;;;;5011433;28;20030;-67
2021/01/24 13:11:40;;;;;;;10.50;5.05;;;;;;;;;;5011164;28;20036;-66
2021/01/24 13:14:07;;;;;;;12.52;5.13;;;11.40;47.40;;;;;;5011655;28;20034;-65
2021/01/24 13:16:34;;;;;;;15.82;5.28;;;;;;;;;;4976767;28;20102;-66
2021/01/24 13:19:00;;;;;;;13.15;5.60;;;;;;;;;;5011375;28;20108;-67
2021/01/24 13:21:27;;;;;;;8.38;4.78;;;;;;;;;;5010093;28;20088;-67
2021/01/24 13:23:53;;;;;;;13.35;5.40;;;;;;;;;;5010813;28;20033;-65
2021/01/24 13:26:20;;;;;;;10.27;5.57;;;11.00;48.20;;;;;;5011379;28;20040;-67
2021/01/24 13:28:46;;;;;;;16.90;6.22;;;;;;;;;;5011566;28;20030;-65
2021/01/24 13:31:13;;;;;;;14.52;5.97;;;;;;;;;;5011008;28;20033;-65
2021/01/24 13:33:39;;;;;;;16.48;6.88;;;;;;;;;;5011189;28;20033;-66
2021/01/24 13:36:06;;;;;;;19.60;6.03;;;;;;;;;;5011381;28;20462;-67
2021/01/24 13:38:32;;;;;;;14.50;6.15;;;;;;;;;;5009677;28;20033;-65
2021/01/24 13:40:59;;;;;;;12.02;5.63;;;;;;;;;;4998798;28;20034;-68
2021/01/24 13:43:25;;;;;;;11.77;6.13;;;;;;;;;;5011370;28;20056;-67
2021/01/24 13:45:51;;;;;;;13.02;6.03;;;;;;;;;;5011105;28;20083;-65
2021/01/24 13:48:18;;;;;;;15.18;6.28;;;;;;;;;;5011475;28;20030;-66
2021/01/24 13:50:44;;;;;;;10.23;5.68;;;;;;;;;;5011500;28;20470;-66
2021/01/24 13:53:10;;;;;;;10.48;5.90;;;;;;;;;;5010478;28;20080;-66
2021/01/24 13:55:38;;;;;;;16.33;6.38;;;;;;;;;;5009408;28;20100;-67
2021/01/24 13:58:04;;;;;;;13.77;5.85;;;;;;;;;;5010773;28;20025;-65